• Join FlightAware (Why Join?)
  • Login
  • US Flag 
09:27PM EDT


 

Airport Tracker/Info


-or-


 

Live Flight TrackerFlight Track Log ✈ N170HL ✈ 09-Jul-2013 ✈ TJSJ / SJU - KRDU

Flight Track Log - Related Links

Times and Time Zones

All times are in EDT time to prevent confusion due to time zone crossing. See the N170HL flight status page for this flight to view local times or setup timezone preferences in your user account.

Time Position Orientation Groundspeed Altitude Reporting Facility
EDT Latitude Longitude Course Direction KTS MPH feet Rate Location/Type
07:35PM 18.4333 -65.9667 347° North 180 207 1,300  Level San Juan Center
07:36PM 18.5000 -65.9833 347° North 280 322 4,400 2,820 Climbing San Juan Center
07:37PM 18.5667 -66.0167 335° Northwest 310 357 7,000 2,580 Climbing San Juan Center
07:38PM 18.6167 -66.0833 308° West 310 357 9,600 2,340 Climbing San Juan Center
07:39PM 18.6833 -66.1667 310° West 320 368 11,800 1,560 Climbing San Juan Center
07:40PM 18.7500 -66.2500 310° West 360 414 12,800 1,440 Climbing San Juan Center
07:41PM 18.8167 -66.3333 310° West 370 426 14,700 1,740 Climbing San Juan Center
07:43PM 18.8833 -66.4167 310° West 370 426 16,400 1,680 Climbing San Juan Center
07:44PM 18.9500 -66.5000 310° West 380 437 18,200 1,500 Climbing San Juan Center
07:45PM 19.0167 -66.5833 310° West 380 437 19,400 1,200 Climbing San Juan Center
07:46PM 19.1000 -66.6667 317° Northwest 390 449 20,700 1,200 Climbing San Juan Center
07:47PM 19.1833 -66.7500 317° Northwest 420 483 21,900 1,200 Climbing San Juan Center
07:48PM 19.2667 -66.8333 317° Northwest 410 472 23,200 1,320 Climbing San Juan Center
07:49PM 19.3500 -66.9167 317° Northwest 420 483 24,600 1,200 Climbing San Juan Center
07:50PM 19.4333 -67.0167 311° West 420 483 25,700 1,200 Climbing San Juan Center
07:51PM 19.5167 -67.1000 317° Northwest 430 495 27,000 1,200 Climbing San Juan Center
07:52PM 19.6000 -67.1833 317° Northwest 440 506 28,200 1,140 Climbing San Juan Center
07:53PM 19.7000 -67.2833 317° Northwest 440 506 29,400 1,140 Climbing San Juan Center
07:54PM 19.7667 -67.3500 317° Northwest 430 495 30,600 1,200 Climbing San Juan Center
07:55PM 19.8833 -67.4333 326° Northwest 440 506 31,800 1,140 Climbing San Juan Center
07:56PM 19.9833 -67.5000 328° Northwest 460 529 32,900 1,080 Climbing San Juan Center
07:57PM 20.0833 -67.5833 322° Northwest 460 529 34,000 1,200 Climbing San Juan Center
07:58PM 20.2000 -67.6500 332° Northwest 470 541 35,400 1,440 Climbing San Juan Center
08:00PM 20.4478 -67.8350 325° Northwest 517 595 38,500 1,440 Climbing Miami Center
08:01PM 20.5444 -67.9214 320° Northwest 480 552 39,900 720 Climbing Miami Center
08:02PM 20.6469 -68.0053 323° Northwest 472 543 40,000  Climbing Miami Center
08:03PM 20.7522 -68.1003 320° Northwest 476 548 40,000  Level Miami Center
08:04PM 20.8575 -68.1953 320° Northwest 486 559 40,000  Level Miami Center
08:05PM 20.9669 -68.2925 320° Northwest 500 575 40,000  Level Miami Center
08:06PM 21.0806 -68.3897 321° Northwest 507 583 40,000  Level Miami Center
08:07PM 21.1881 -68.4872 320° Northwest 507 583 40,000  Level Miami Center
08:08PM 21.2933 -68.5872 318° Northwest 512 589 40,000  Level Miami Center
08:09PM 21.4092 -68.6869 321° Northwest 512 589 40,000  Level Miami Center
08:10PM 21.5225 -68.7847 321° Northwest 512 589 40,000  Level Miami Center
08:11PM 21.6342 -68.8850 320° Northwest 523 602 40,000  Level Miami Center
08:12PM 21.7414 -68.9833 320° Northwest 523 602 40,000  Level Miami Center
08:13PM 21.8486 -69.0817 320° Northwest 523 602 40,000  Level Miami Center
08:14PM 21.9639 -69.1800 322° Northwest 517 595 40,000  Level Miami Center
08:15PM 22.0711 -69.2789 319° Northwest 517 595 40,000  Level Miami Center
08:16PM 22.1822 -69.3800 320° Northwest 517 595 40,000  Level Miami Center
08:17PM 22.2933 -69.4789 321° Northwest 517 595 40,000  Level Miami Center
08:18PM 22.4003 -69.5758 320° Northwest 517 595 40,000  Level Miami Center
08:19PM 22.5094 -69.6775 319° Northwest 517 595 40,000  Level Miami Center
08:20PM 22.6183 -69.7750 320° Northwest 515 593 40,000  Level Miami Center
08:21PM 22.7272 -69.8747 320° Northwest 515 593 40,000  Level Miami Center
08:22PM 22.8383 -69.9767 320° Northwest 515 593 40,000  Level Miami Center
08:23PM 22.9492 -70.0767 320° Northwest 515 593 40,000  Level Miami Center
08:24PM 23.0558 -70.1747 320° Northwest 510 587 40,000  Level Miami Center
08:25PM 23.1644 -70.2750 320° Northwest 504 580 40,000  Level Miami Center
08:26PM 23.2731 -70.3756 320° Northwest 504 580 40,000  Level Miami Center
08:27PM 23.3817 -70.4742 320° Northwest 504 580 40,000  Level Miami Center
08:28PM 23.4883 -70.5750 319° Northwest 504 580 40,000  Level Miami Center
08:29PM 23.5947 -70.6739 320° Northwest 504 580 40,000  Level Miami Center
08:30PM 23.7011 -70.7753 319° Northwest 504 580 40,000  Level Miami Center
08:31PM 23.8072 -70.8722 320° Northwest 504 580 40,000  Level Miami Center
08:32PM 23.9158 -70.9783 318° Northwest 499 574 40,000  Level Miami Center
08:33PM 24.0217 -71.0689 322° Northwest 504 580 40,000  Level Miami Center
08:34PM 24.1278 -71.1708 319° Northwest 504 580 40,000  Level Miami Center
08:35PM 24.2342 -71.2797 317° Northwest 504 580 40,000  Level Miami Center
08:36PM 24.3422 -71.3775 321° Northwest 504 580 40,000  Level Miami Center
08:37PM 24.4458 -71.4708 321° Northwest 501 577 40,000  Level Miami Center
08:38PM 24.5539 -71.5711 320° Northwest 496 571 40,000  Level Miami Center
08:39PM 24.6578 -71.6742 318° Northwest 496 571 40,000  Level Miami Center
08:40PM 24.7636 -71.7725 320° Northwest 501 577 40,000  Level Miami Center
08:41PM 24.8694 -71.8781 318° Northwest 501 577 40,000  Level Miami Center
08:42PM 24.9747 -71.9678 322° Northwest 507 583 40,000  Level Miami Center
08:43PM 25.0000 -72.0000 330° Northwest 500 575 40,000  Level New York Oceanic (ODAPS)
08:50PM 26.0868 -72.6923 330° Northwest 500 575 40,000  Level FlightAware Transoceanic
08:51PM 26.2073 -72.7700 330° Northwest 500 575 40,000  Level FlightAware Transoceanic
08:52PM 26.3278 -72.8479 330° Northwest 500 575 40,000  Level FlightAware Transoceanic
08:53PM 26.4483 -72.9259 330° Northwest 500 575 40,000  Level FlightAware Transoceanic
08:54PM 26.5687 -73.0041 330° Northwest 500 575 40,000  Level FlightAware Transoceanic
08:55PM 26.6891 -73.0825 330° Northwest 500 575 40,000  Level FlightAware Transoceanic
08:56PM 26.8094 -73.1610 330° Northwest 500 575 40,000  Level FlightAware Transoceanic
08:57PM 26.9297 -73.2397 330° Northwest 500 575 40,000  Level FlightAware Transoceanic
08:58PM 27.0500 -73.3186 330° Northwest 500 575 40,000  Level FlightAware Transoceanic
08:59PM 27.1702 -73.3976 330° Northwest 500 575 40,000  Level FlightAware Transoceanic
09:00PM 27.2903 -73.4768 330° Northwest 500 575 40,000  Level FlightAware Transoceanic
09:01PM 27.4105 -73.5562 330° Northwest 500 575 40,000  Level FlightAware Transoceanic
09:02PM 27.5305 -73.6357 330° Northwest 500 575 40,000  Level FlightAware Transoceanic
09:03PM 27.6506 -73.7154 329° Northwest 500 575 40,000  Level FlightAware Transoceanic
09:04PM 27.7705 -73.7953 329° Northwest 500 575 40,000  Level FlightAware Transoceanic
09:05PM 27.8905 -73.8754 329° Northwest 500 575 40,000  Level FlightAware Transoceanic
09:06PM 28.0104 -73.9556 329° Northwest 500 575 40,000  Level FlightAware Transoceanic
09:07PM 28.1302 -74.0361 329° Northwest 500 575 40,000  Level FlightAware Transoceanic
09:08PM 28.2500 -74.1167 322° Northwest 500 575 40,000  Level FlightAware Transoceanic
09:09PM 28.3618 -74.2166 322° Northwest 500 575 40,000  Level FlightAware Transoceanic
09:10PM 28.4734 -74.3168 322° Northwest 500 575 40,000  Level FlightAware Transoceanic
09:11PM 28.5851 -74.4172 322° Northwest 500 575 40,000  Level FlightAware Transoceanic
09:11PM 28.2500 -74.1167 322° Northwest 494 568 40,000  Level New York Oceanic (ODAPS)
09:12PM 28.6966 -74.5178 322° Northwest 500 575 40,000  Level FlightAware Transoceanic
09:13PM 28.8081 -74.6187 322° Northwest 500 575 40,000  Level FlightAware Transoceanic
09:14PM 28.9195 -74.7197 322° Northwest 500 575 40,000  Level FlightAware Transoceanic
09:15PM 29.0308 -74.8210 321° Northwest 500 575 40,000  Level FlightAware Transoceanic
09:16PM 29.1420 -74.9224 321° Northwest 500 575 40,000  Level FlightAware Transoceanic
09:17PM 29.2187 -74.9926 321° Northwest 494 568 40,000  Level FlightAware Transoceanic
09:18PM 29.3260 -75.0909 321° Northwest 494 568 40,000  Level FlightAware Transoceanic
09:19PM 29.4332 -75.1894 321° Northwest 494 568 40,000  Level FlightAware Transoceanic
09:20PM 29.5403 -75.2882 321° Northwest 494 568 40,000  Level FlightAware Transoceanic
09:21PM 29.6474 -75.3872 321° Northwest 494 568 40,000  Level FlightAware Transoceanic
09:22PM 29.7544 -75.4863 321° Northwest 494 568 40,000  Level FlightAware Transoceanic
09:23PM 29.8613 -75.5857 321° Northwest 494 568 40,000  Level FlightAware Transoceanic
09:24PM 29.9681 -75.6853 321° Northwest 494 568 40,000  Level FlightAware Transoceanic
09:25PM 30.0749 -75.7851 321° Northwest 494 568 40,000  Level FlightAware Transoceanic
09:26PM 30.1816 -75.8851 321° Northwest 494 568 40,000  Level FlightAware Transoceanic
09:27PM 30.2882 -75.9854 321° Northwest 494 568 40,000  Level FlightAware Transoceanic
09:28PM 30.3947 -76.0858 321° Northwest 494 568 40,000  Level FlightAware Transoceanic
09:28PM 30.3714 -76.0611 321° Northwest 512 589 40,000  Level Jacksonville Center
09:29PM 30.5012 -76.1865 321° Northwest 494 568 40,000  Level FlightAware Transoceanic
09:29PM 30.4814 -76.1664 320° Northwest 507 583 40,000  Level Jacksonville Center
09:30PM 30.6075 -76.2874 321° Northwest 494 568 40,000  Level FlightAware Transoceanic
09:30PM 30.5906 -76.2600 324° Northwest 507 583 40,000  Level Jacksonville Center
09:31PM 30.7139 -76.3885 321° Northwest 494 568 40,000  Level FlightAware Transoceanic
09:31PM 30.7022 -76.3608 322° Northwest 502 578 40,000  Level Jacksonville Center
09:32PM 30.8201 -76.4899 321° Northwest 494 568 40,000  Level FlightAware Transoceanic
09:32PM 30.8119 -76.4694 320° Northwest 502 578 40,000  Level Jacksonville Center
09:33PM 30.9262 -76.5915 321° Northwest 494 568 40,000  Level FlightAware Transoceanic
09:33PM 30.9178 -76.5783 319° Northwest 502 578 40,000  Level Jacksonville Center
09:34PM 31.0308 -76.6725 324° Northwest 503 579 40,000  Level Jacksonville Center
09:35PM 31.1367 -76.7892 317° Northwest 503 579 40,000  Level Jacksonville Center
09:36PM 31.2439 -76.8917 321° Northwest 508 585 40,000  Level Jacksonville Center
09:37PM 31.3331 -76.9708 323° Northwest 503 579 40,000  Level Jacksonville Center
09:38PM 31.4883 -77.0342 341° North 494 568 40,000  Level Jacksonville Center
09:39PM 31.6217 -77.0719 346° North 481 554 40,000  Level Jacksonville Center
09:40PM 31.7550 -77.1125 345° North 486 559 40,000  Level Jacksonville Center
09:41PM 31.8881 -77.1481 347° North 486 559 40,000  Level Jacksonville Center
09:42PM 32.0211 -77.1839 347° North 486 559 40,000  Level Jacksonville Center
09:43PM 32.1564 -77.2222 347° North 486 559 40,000  Level Jacksonville Center
09:44PM 32.2875 -77.2606 346° North 486 559 40,000  Level Jacksonville Center
09:45PM 32.4208 -77.3017 345° North 491 565 40,000  Level Jacksonville Center
09:46PM 32.5519 -77.3403 346° North 491 565 40,000  Level Jacksonville Center
09:47PM 32.6850 -77.3792 346° North 491 565 40,000  Level Jacksonville Center
09:48PM 32.8183 -77.4178 346° North 491 565 40,000  Level Jacksonville Center
09:50PM 33.0325 -77.4814 346° North 498 573 40,000 -480 Level Washington Center
09:51PM 33.1633 -77.5189 347° North 487 560 38,800 -1,680 Descending Washington Center
09:52PM 33.2942 -77.5592 346° North 487 560 36,700 -2,160 Descending Washington Center
09:53PM 33.4208 -77.5944 347° North 481 554 34,600 -2,160 Descending Washington Center
09:54PM 33.5536 -77.6350 346° North 481 554 32,400 -2,220 Descending Washington Center
09:55PM 33.6864 -77.6758 346° North 486 559 30,200 -1,800 Descending Washington Center
09:56PM 33.8214 -77.7142 347° North 486 559 28,900 -1,260 Descending Washington Center
09:57PM 33.9542 -77.7525 347° North 486 559 27,800 -1,140 Descending Washington Center
09:58PM 34.0847 -77.7936 345° North 486 559 26,600 -1,200 Descending Washington Center
09:59PM 34.2197 -77.8347 346° North 486 559 25,400 -1,200 Descending Washington Center
10:00PM 34.3422 -77.8683 347° North 499 574 24,300 -1,200 Descending Washington Center
10:01PM 34.4758 -77.8644 North 485 558 23,100 -1,200 Descending Washington Center
10:02PM 34.6033 -77.8528 North 470 541 22,000 -1,140 Descending Washington Center
10:03PM 34.7286 -77.8411 North 459 528 20,900 -1,140 Descending Washington Center
10:04PM 34.8606 -77.8219 North 448 516 19,800 -1,140 Descending Washington Center
10:05PM 34.9817 -77.8075 North 441 507 18,700 -1,020 Descending Washington Center
10:06PM 35.1092 -77.7958 North 441 507 17,800 -1,080 Descending Washington Center
10:07PM 35.2325 -77.7839 North 446 513 16,600 -1,140 Descending Washington Center
10:08PM 35.3497 -77.7719 North 439 505 15,600 -1,080 Descending Washington Center
10:09PM 35.4617 -77.8006 348° North 428 493 14,500 -1,080 Descending Washington Center
10:10PM 35.5261 -77.9222 303° West 380 437 13,500 -1,080 Descending Washington Center
10:11PM 35.5536 -78.0122 291° West 411 473 12,800 -1,020 Descending Washington Center
10:12PM 35.6133 -78.1519 298° West 401 461 11,700 -780 Descending Washington Center
10:13PM 35.6731 -78.2894 298° West 391 450 11,000 -780 Descending Washington Center
10:14PM 35.7086 -78.3650 300° West 354 407 10,200 -1,740 Descending Washington Center
10:15PM 35.7650 -78.4564 307° West 291 335 8,000 -1,980 Descending Washington Center
10:16PM 35.8111 -78.5350 306° West 271 312 6,200 -1,740 Descending Washington Center
10:17PM 35.8592 -78.6136 307° West 268 308 4,300 -1,560 Descending Washington Center
10:18PM 35.9014 -78.6767 310° West 251 289 2,800 -1,380 Descending Washington Center
10:19PM 35.9211 -78.7264 296° West 184 212 1,800 -1,020 Descending Washington Center
10:20PM 35.8908 -78.7636 225° Southwest 129 148 900 -840 Descending Washington Center
10:22PM 35.8667 -78.7833 North  Level FlightAware Approximate
10:29PM 35.8776 -78.7875 North  Level Estimated